Time;durP1;ratioP1;P1;durP2;ratioP2;P2;SDS_P1;SDS_P2;PMS_P1;PMS_P2;Temp;Humidity;BMP_temperature;BMP_pressure;BME280_temperature;BME280_humidity;BME280_pressure;Samples;Min_cycle;Max_cycle;Signal;HPM_P1;HPM_P2
2022/07/24 00:01:17;;;;;;;13.57;12.13;;;;;;;;;;10389205;28;20069;-75
2022/07/24 00:06:17;;;;;;;12.65;11.38;;;;;;;;;;10390638;28;20052;-75
2022/07/24 00:11:18;;;;;;;15.35;13.43;;;;;;;;;;10381517;28;20219;-77
2022/07/24 00:16:18;;;;;;;14.40;12.88;;;;;;;;;;10387535;28;20041;-76
2022/07/24 00:21:18;;;;;;;13.57;12.23;;;;;;;;;;10381747;28;20050;-76
2022/07/24 00:26:19;;;;;;;14.27;12.87;;;;;;;;;;10389863;28;20406;-77
2022/07/24 00:31:21;;;;;;;16.03;14.40;;;;;;;;;;10385149;28;20287;-76
2022/07/24 00:36:21;;;;;;;15.77;14.07;;;;;;;;;;10383347;28;20280;-76
2022/07/24 00:41:21;;;;;;;16.00;13.87;;;;;;;;;;10388248;28;20405;-76
2022/07/24 00:46:22;;;;;;;14.77;13.27;;;;;;;;;;10405435;28;20430;-76
2022/07/24 00:51:22;;;;;;;14.87;13.37;;;;;;;;;;10395108;28;20430;-77
2022/07/24 00:56:23;;;;;;;14.45;12.95;;;;;;;;;;10377465;28;20041;-76
2022/07/24 01:01:23;;;;;;;13.68;12.27;;;;;;;;;;10401558;28;20109;-77
2022/07/24 01:06:24;;;;;;;16.00;13.82;;;;;;;;;;10389192;28;20038;-76
2022/07/24 01:11:25;;;;;;;15.45;13.07;;;;;;;;;;10384412;28;20050;-76
2022/07/24 01:16:25;;;;;;;14.10;12.60;;;;;;;;;;10374436;28;20208;-77
2022/07/24 01:21:25;;;;;;;15.70;14.00;;;;;;;;;;10395720;28;20116;-76
2022/07/24 01:26:26;;;;;;;16.50;14.03;;;;;;;;;;10388740;28;20272;-76
2022/07/24 01:31:26;;;;;;;15.05;13.45;;;;;;;;;;10390567;28;20042;-76
2022/07/24 01:36:27;;;;;;;16.53;14.80;;;;;;;;;;10388899;28;20049;-76
2022/07/24 01:41:27;;;;;;;14.93;13.48;;;;;;;;;;10379370;28;20289;-77
2022/07/24 01:46:28;;;;;;;15.00;13.40;;;;;;;;;;10379483;28;20046;-76
2022/07/24 01:51:28;;;;;;;15.68;14.07;;;;;;;;;;10377128;28;20511;-77
2022/07/24 01:56:29;;;;;;;15.83;14.17;;;;;;;;;;10388878;28;20049;-76
2022/07/24 02:01:29;;;;;;;14.32;12.93;;;;;;;;;;10370844;28;20120;-77
2022/07/24 02:06:31;;;;;;;14.55;13.05;;;;;;;;;;10384549;28;20168;-77
2022/07/24 02:11:32;;;;;;;16.20;14.40;;;;;;;;;;10383410;28;20089;-77
2022/07/24 02:16:32;;;;;;;17.25;14.48;;;;;;;;;;10377598;28;20053;-76
2022/07/24 02:21:33;;;;;;;15.60;13.95;;;;;;;;;;10381750;28;20104;-76
2022/07/24 02:26:33;;;;;;;15.90;14.23;;;;;;;;;;10382894;28;20057;-77
2022/07/24 02:31:34;;;;;;;15.52;13.88;;;;;;;;;;10390571;28;20504;-76
2022/07/24 02:36:34;;;;;;;16.63;14.53;;;;;;;;;;10372008;28;20052;-77
2022/07/24 02:41:35;;;;;;;15.97;14.30;;;;;;;;;;10382104;28;20060;-77
2022/07/24 02:46:36;;;;;;;16.00;14.30;;;;;;;;;;10374634;28;20268;-77
2022/07/24 02:51:36;;;;;;;16.40;14.30;;;;;;;;;;10371501;28;20393;-77
2022/07/24 02:56:36;;;;;;;17.67;14.63;;;;;;;;;;10381678;28;20782;-76
2022/07/24 03:01:37;;;;;;;16.30;13.87;;;;;;;;;;10377025;28;20206;-77
2022/07/24 03:12:41;;;;;;;15.23;13.63;;;;;;;;;;10377368;28;20280;-76
2022/07/24 03:18:00;;;;;;;16.15;14.45;;;;;;;;;;10388844;28;20054;-77
2022/07/24 03:23:00;;;;;;;16.40;14.15;;;;;;;;;;10380499;28;20447;-77
2022/07/24 03:28:01;;;;;;;15.40;13.77;;;;;;;;;;10369830;28;20057;-75
2022/07/24 03:33:03;;;;;;;14.90;13.15;;;;;;;;;;10379681;28;20284;-76
2022/07/24 03:38:03;;;;;;;17.08;14.23;;;;;;;;;;10372731;28;20057;-76
2022/07/24 03:43:04;;;;;;;16.83;14.67;;;;;;;;;;10383006;28;20041;-77
2022/07/24 03:48:05;;;;;;;17.63;14.87;;;;;;;;;;10386376;28;20284;-77
2022/07/24 03:53:06;;;;;;;18.48;15.45;;;;;;;;;;10388465;28;20296;-76
2022/07/24 03:58:06;;;;;;;16.43;14.43;;;;;;;;;;10385561;28;20084;-77
2022/07/24 04:03:06;;;;;;;18.10;15.03;;;;;;;;;;10383477;28;20343;-77
2022/07/24 04:08:07;;;;;;;18.02;15.23;;;;;;;;;;10374813;28;20272;-77
2022/07/24 04:13:07;;;;;;;19.23;16.40;;;;;;;;;;10374153;28;20054;-77
2022/07/24 04:18:07;;;;;;;17.50;15.50;;;;;;;;;;10386142;28;20053;-77
2022/07/24 04:23:08;;;;;;;19.47;17.07;;;;;;;;;;10368623;28;20346;-77
2022/07/24 04:28:08;;;;;;;16.30;14.48;;;;;;;;;;10377900;28;20288;-78
2022/07/24 04:33:10;;;;;;;16.35;14.50;;;;;;;;;;10373324;28;20076;-77
2022/07/24 04:38:10;;;;;;;18.33;14.80;;;;;;;;;;10378774;28;20072;-76
2022/07/24 04:43:11;;;;;;;16.80;15.00;;;;;;;;;;10391144;28;20512;-77
2022/07/24 04:48:11;;;;;;;17.73;15.83;;;;;;;;;;10381763;28;20364;-77
2022/07/24 04:53:11;;;;;;;16.47;14.30;;;;;;;;;;10391400;28;20067;-77
2022/07/24 04:58:12;;;;;;;17.93;15.70;;;;;;;;;;10378896;28;20400;-78
2022/07/24 05:03:12;;;;;;;16.20;14.15;;;;;;;;;;10387705;28;20316;-75
2022/07/24 05:08:12;;;;;;;16.83;14.53;;;;;;;;;;10392609;28;20045;-75
2022/07/24 05:13:13;;;;;;;16.77;15.00;;;;;;;;;;10393146;28;20821;-77
2022/07/24 05:18:13;;;;;;;16.80;15.10;;;;;;;;;;10365946;28;20061;-77
2022/07/24 05:23:14;;;;;;;18.00;15.43;;;;;;;;;;10378436;28;20072;-76
2022/07/24 05:28:14;;;;;;;16.83;14.33;;;;;;;;;;10383134;28;20316;-76
2022/07/24 05:33:15;;;;;;;17.42;15.57;;;;;;;;;;10388295;28;20041;-77
2022/07/24 05:38:15;;;;;;;17.37;15.33;;;;;;;;;;10385657;28;20080;-76
2022/07/24 05:43:16;;;;;;;17.55;14.80;;;;;;;;;;10370123;28;20987;-75
2022/07/24 05:48:16;;;;;;;18.63;16.35;;;;;;;;;;10381116;28;20053;-77
2022/07/24 05:53:17;;;;;;;15.95;14.35;;;;;;;;;;10370022;28;20105;-77
2022/07/24 05:58:18;;;;;;;15.82;14.13;;;;;;;;;;10394635;28;20061;-73
2022/07/24 06:03:19;;;;;;;16.80;14.90;;;;;;;;;;10389288;28;20041;-73
2022/07/24 06:08:19;;;;;;;17.07;14.83;;;;;;;;;;10396013;28;20796;-70
2022/07/24 06:13:19;;;;;;;17.50;15.13;;;;;;;;;;10389896;28;20048;-71
2022/07/24 06:18:20;;;;;;;16.63;13.75;;;;;;;;;;10386735;28;20288;-71
2022/07/24 06:23:21;;;;;;;16.42;14.73;;;;;;;;;;10392898;28;20042;-71
2022/07/24 06:28:21;;;;;;;18.20;14.93;;;;;;;;;;10391735;28;20038;-73
2022/07/24 06:33:22;;;;;;;29.83;24.85;;;;;;;;;;10387433;28;20290;-74
2022/07/24 06:38:22;;;;;;;18.93;16.30;;;;;;;;;;10395073;28;20057;-74
2022/07/24 06:43:23;;;;;;;16.75;15.05;;;;;;;;;;10394738;28;20050;-74
2022/07/24 06:48:23;;;;;;;17.53;14.47;;;;;;;;;;10388327;28;20136;-69
2022/07/24 06:53:24;;;;;;;16.90;15.20;;;;;;;;;;10392209;28;20053;-70
2022/07/24 06:58:24;;;;;;;17.23;15.10;;;;;;;;;;10375006;28;20831;-71
2022/07/24 07:03:24;;;;;;;14.87;13.23;;;;;;;;;;10391253;28;20329;-70
2022/07/24 07:08:25;;;;;;;16.17;14.50;;;;;;;;;;10386594;28;20056;-71
2022/07/24 07:13:25;;;;;;;14.87;13.33;;;;;;;;;;10387391;28;20378;-72
2022/07/24 07:18:25;;;;;;;52.70;42.40;;;;;;;;;;10392613;28;20045;-71
2022/07/24 07:23:27;;;;;;;16.58;14.73;;;;;;;;;;10388334;28;21153;-71
2022/07/24 07:28:28;;;;;;;;;;;;;;;;;;10385673;28;20096;-71
2022/07/24 07:33:28;;;;;;;15.88;14.02;;;;;;;;;;10380099;28;19924;-72
2022/07/24 07:38:29;;;;;;;14.88;13.43;;;;;;;;;;10367132;28;20133;-73
2022/07/24 07:43:29;;;;;;;16.27;14.57;;;;;;;;;;10372583;28;20054;-71
2022/07/24 07:48:30;;;;;;;14.67;12.50;;;;;;;;;;10395946;28;20041;-69
2022/07/24 07:53:30;;;;;;;19.17;17.17;;;;;;;;;;10384771;28;20858;-70
2022/07/24 07:58:31;;;;;;;14.27;12.87;;;;;;;;;;10367590;28;20054;-70
2022/07/24 08:03:31;;;;;;;13.57;12.27;;;;;;;;;;10381972;28;20053;-71
2022/07/24 08:08:31;;;;;;;14.60;12.70;;;;;;;;;;10367143;28;20284;-70
2022/07/24 08:13:32;;;;;;;14.10;12.80;;;;;;;;;;10385502;28;20282;-70
2022/07/24 08:18:32;;;;;;;13.40;12.03;;;;;;;;;;10391221;28;20728;-70
2022/07/24 08:23:33;;;;;;;13.15;11.95;;;;;;;;;;10378693;28;20257;-71
2022/07/24 08:28:33;;;;;;;14.00;12.67;;;;;;;;;;10384669;28;20144;-71
2022/07/24 08:33:33;;;;;;;13.30;11.90;;;;;;;;;;10373657;28;20359;-70
2022/07/24 08:38:34;;;;;;;12.73;11.43;;;;;;;;;;10390476;28;20057;-71
2022/07/24 08:43:34;;;;;;;12.90;11.60;;;;;;;;;;10392780;28;20396;-70
2022/07/24 08:48:35;;;;;;;13.33;11.83;;;;;;;;;;10378584;28;20286;-71
2022/07/24 08:53:35;;;;;;;13.70;12.18;;;;;;;;;;10377786;28;20129;-70
2022/07/24 08:58:39;;;;;;;10.68;9.70;;;;;;;;;;10382825;28;20763;-71
2022/07/24 09:03:44;;;;;;;11.38;10.18;;;;;;;;;;10376639;28;20045;-71
2022/07/24 09:08:58;;;;;;;9.88;8.98;;;;;;;;;;10394877;28;20087;-71
2022/07/24 09:19:21;;;;;;;9.75;8.75;;;;;;;;;;10384339;28;20054;-71
2022/07/24 09:24:22;;;;;;;9.85;8.80;;;;;;;;;;10381125;28;20056;-71
2022/07/24 09:29:23;;;;;;;11.03;8.20;;;;;;;;;;10375777;28;20079;-71
2022/07/24 09:34:24;;;;;;;;;;;;;;;;;;10391212;28;20123;-71
2022/07/24 09:39:24;;;;;;;;;;;;;;;;;;10381031;28;20029;-71
2022/07/24 09:44:25;;;;;;;;;;;;;;;;;;10380720;28;19913;-71
2022/07/24 09:49:25;;;;;;;;;;;;;;;;;;10380408;28;20181;-70
2022/07/24 09:54:26;;;;;;;;;;;;;;;;;;10378807;28;19949;-72
2022/07/24 09:59:26;;;;;;;;;;;;;;;;;;10388617;28;19925;-72
2022/07/24 10:04:26;;;;;;;;;;;;;;;;;;10381622;28;19924;-70
2022/07/24 10:09:26;;;;;;;;;;;;;;;;;;10384713;28;19921;-71
2022/07/24 10:14:26;;;;;;;;;;;;;;;;;;10374070;28;19929;-71
2022/07/24 10:19:27;;;;;;;;;;;;;;;;;;10369784;28;19926;-71
2022/07/24 10:24:27;;;;;;;;;;;;;;;;;;10376871;28;19975;-71
2022/07/24 10:29:27;;;;;;;;;;;;;;;;;;10387918;28;20370;-75
2022/07/24 10:34:27;;;;;;;;;;;;;;;;;;10393068;28;20365;-76
2022/07/24 10:39:29;;;;;;;;;;;;;;;;;;10379585;28;19929;-74
2022/07/24 10:44:29;;;;;;;;;;;;;;;;;;10381605;28;19917;-75
2022/07/24 10:49:30;;;;;;;;;;;;;;;;;;10374593;28;19924;-75
2022/07/24 10:54:30;;;;;;;;;;;;;;;;;;10386437;28;19917;-75
2022/07/24 10:59:30;;;;;;;;;;;;;;;;;;10389818;28;19925;-75
2022/07/24 11:04:33;;;;;;;;;;;;;;;;;;10370802;28;19917;-76
2022/07/24 11:09:37;;;;;;;;;;;;;;;;;;10383639;28;19985;-75
2022/07/24 11:14:37;;;;;;;;;;;;;;;;;;10382971;28;20067;-75
2022/07/24 11:19:37;;;;;;;;;;;;;;;;;;10387291;28;21011;-76
2022/07/24 11:24:37;;;;;;;;;;;;;;;;;;10375796;28;19983;-76
2022/07/24 11:29:37;;;;;;;;;;;;;;;;;;10374769;28;19920;-77
2022/07/24 11:34:38;;;;;;;;;;;;;;;;;;10366321;28;19993;-76
2022/07/24 11:39:39;;;;;;;;;;;;;;;;;;10375414;28;20751;-75
2022/07/24 11:44:39;;;;;;;;;;;;;;;;;;10377927;28;19992;-74
2022/07/24 11:49:40;;;;;;;;;;;;;;;;;;10372426;28;19913;-76
2022/07/24 11:54:40;;;;;;;;;;;;;;;;;;10384583;28;20662;-75
2022/07/24 11:59:40;;;;;;;;;;;;;;;;;;10378965;28;19921;-76
2022/07/24 12:04:40;;;;;;;;;;;;;;;;;;10373130;28;20195;-75
2022/07/24 12:09:41;;;;;;;;;;;;;;;;;;10369976;28;19955;-76
2022/07/24 12:14:41;;;;;;;;;;;;;;;;;;10390382;28;19928;-76
2022/07/24 12:19:41;;;;;;;;;;;;;;;;;;10384519;28;19993;-76
2022/07/24 12:24:41;;;;;;;;;;;;;;;;;;10382999;28;20383;-76
2022/07/24 12:29:42;;;;;;;;;;;;;;;;;;10376031;28;19917;-76
2022/07/24 12:34:42;;;;;;;;;;;;;;;;;;10376719;28;19917;-75
2022/07/24 12:39:42;;;;;;;;;;;;;;;;;;10382133;28;19929;-76
2022/07/24 12:44:43;;;;;;;;;;;;;;;;;;10390351;28;19972;-74
2022/07/24 12:49:43;;;;;;;;;;;;;;;;;;10382713;28;19913;-75
2022/07/24 12:54:43;;;;;;;;;;;;;;;;;;10372945;28;19924;-75
2022/07/24 12:59:49;;;;;;;;;;;;;;;;;;10368679;28;19922;-76
2022/07/24 13:04:50;;;;;;;;;;;;;;;;;;10374564;28;20349;-75
2022/07/24 13:09:51;;;;;;;;;;;;;;;;;;10387134;28;20016;-76
2022/07/24 13:14:51;;;;;;;;;;;;;;;;;;10387107;28;19933;-76
2022/07/24 13:19:52;;;;;;;;;;;;;;;;;;10387927;28;19925;-77
2022/07/24 13:24:53;;;;;;;;;;;;;;;;;;10398900;28;19936;-77
2022/07/24 13:29:54;;;;;;;;;;;;;;;;;;10398619;28;19955;-76
2022/07/24 13:34:54;;;;;;;;;;;;;;;;;;10398295;28;19944;-76
2022/07/24 13:40:05;;;;;;;;;;;;;;;;;;10389360;28;20233;-78
2022/07/24 13:45:05;;;;;;;;;;;;;;;;;;10403017;28;19913;-77
2022/07/24 13:50:05;;;;;;;;;;;;;;;;;;10392625;28;19916;-77
2022/07/24 13:55:05;;;;;;;;;;;;;;;;;;10374241;28;20787;-78
2022/07/24 14:00:06;;;;;;;;;;;;;;;;;;10390787;28;19925;-77
2022/07/24 14:05:07;;;;;;;;;;;;;;;;;;10405644;28;19924;-77
2022/07/24 14:10:07;;;;;;;;;;;;;;;;;;10399873;28;20224;-76
2022/07/24 14:15:12;;;;;;;;;;;;;;;;;;10405470;28;19920;-77
2022/07/24 14:20:12;;;;;;;;;;;;;;;;;;10391799;28;19928;-76
2022/07/24 14:25:12;;;;;;;;;;;;;;;;;;10392047;28;19917;-76
2022/07/24 14:30:12;;;;;;;;;;;;;;;;;;10393708;28;19917;-76
2022/07/24 14:35:13;;;;;;;;;;;;;;;;;;10384127;28;19917;-77
2022/07/24 14:40:13;;;;;;;;;;;;;;;;;;10375506;28;19929;-76
2022/07/24 14:45:13;;;;;;;;;;;;;;;;;;10386879;28;20012;-76
2022/07/24 14:50:14;;;;;;;;;;;;;;;;;;10379218;28;19922;-76
2022/07/24 14:55:15;;;;;;;;;;;;;;;;;;10379326;28;19937;-76
2022/07/24 15:00:16;;;;;;;;;;;;;;;;;;10371736;28;19932;-76
2022/07/24 15:05:16;;;;;;;;;;;;;;;;;;10376500;28;19917;-76
2022/07/24 15:10:17;;;;;;;;;;;;;;;;;;10398230;28;19921;-76
2022/07/24 15:15:17;;;;;;;;;;;;;;;;;;10385569;28;19944;-76
2022/07/24 15:20:17;;;;;;;;;;;;;;;;;;10390789;28;20012;-77
2022/07/24 15:25:17;;;;;;;;;;;;;;;;;;10368436;28;19917;-75
2022/07/24 15:30:18;;;;;;;;;;;;;;;;;;10384590;28;19936;-75
2022/07/24 15:35:18;;;;;;;;;;;;;;;;;;10383614;28;20287;-74
2022/07/24 15:40:18;;;;;;;;;;;;;;;;;;10380376;28;20015;-76
2022/07/24 15:45:18;;;;;;;;;;;;;;;;;;10385985;28;19925;-75
2022/07/24 15:50:20;;;;;;;;;;;;;;;;;;10371969;28;19973;-77
2022/07/24 15:55:20;;;;;;;;;;;;;;;;;;10384037;28;19917;-77
2022/07/24 16:00:20;;;;;;;;;;;;;;;;;;10387037;28;19928;-81
2022/07/24 16:05:22;;;;;;;;;;;;;;;;;;10384899;28;19924;-79
2022/07/24 16:10:23;;;;;;;;;;;;;;;;;;10378369;28;19921;-80
2022/07/24 16:15:23;;;;;;;;;;;;;;;;;;10386724;28;19924;-80
2022/07/24 16:20:23;;;;;;;;;;;;;;;;;;10383267;28;22669;-78
2022/07/24 16:25:23;;;;;;;;;;;;;;;;;;10369468;28;19928;-78
2022/07/24 16:30:24;;;;;;;;;;;;;;;;;;10388133;28;20091;-78
2022/07/24 16:35:24;;;;;;;;;;;;;;;;;;10391951;28;19921;-77
2022/07/24 16:40:27;;;;;;;;;;;;;;;;;;10388815;28;19935;-79
2022/07/24 16:45:28;;;;;;;;;;;;;;;;;;10393069;28;20444;-79
2022/07/24 16:50:28;;;;;;;;;;;;;;;;;;10392146;28;19925;-79
2022/07/24 16:55:28;;;;;;;;;;;;;;;;;;10395602;28;20025;-76
2022/07/24 17:00:28;;;;;;;;;;;;;;;;;;10387054;28;19925;-78
2022/07/24 17:05:29;;;;;;;;;;;;;;;;;;10375114;28;19916;-77
2022/07/24 17:10:30;;;;;;;;;;;;;;;;;;10375632;28;19932;-78
2022/07/24 17:16:25;;;;;;;;;;;;;;;;;;10404712;28;19917;-77
2022/07/24 17:21:25;;;;;;;;;;;;;;;;;;10387048;28;19932;-77
2022/07/24 17:26:25;;;;;;;;;;;;;;;;;;10392671;28;19923;-78
2022/07/24 17:31:25;;;;;;;;;;;;;;;;;;10394544;28;19969;-77
2022/07/24 17:36:26;;;;;;;;;;;;;;;;;;10399992;28;19980;-77
2022/07/24 17:41:26;;;;;;;;;;;;;;;;;;10382151;28;19921;-77
2022/07/24 17:46:26;;;;;;;;;;;;;;;;;;10387024;28;19924;-77
2022/07/24 17:51:26;;;;;;;;;;;;;;;;;;10396314;28;19917;-77
2022/07/24 17:56:27;;;;;;;;;;;;;;;;;;10386389;28;19924;-77
2022/07/24 18:01:27;;;;;;;;;;;;;;;;;;10386614;28;19953;-77
2022/07/24 18:06:27;;;;;;;;;;;;;;;;;;10398632;28;19917;-77
2022/07/24 18:11:27;;;;;;;;;;;;;;;;;;10388580;28;19918;-78
2022/07/24 18:16:28;;;;;;;;;;;;;;;;;;10389015;28;19917;-78
2022/07/24 18:21:28;;;;;;;;;;;;;;;;;;10397509;28;19921;-77
2022/07/24 18:26:28;;;;;;;;;;;;;;;;;;10396378;28;20024;-79
2022/07/24 18:31:28;;;;;;;;;;;;;;;;;;10390358;28;19920;-79
2022/07/24 18:36:29;;;;;;;;;;;;;;;;;;10389883;28;19913;-79
2022/07/24 18:41:31;;;;;;;;;;;;;;;;;;10388805;28;19956;-79
2022/07/24 18:46:32;;;;;;;;;;;;;;;;;;10398633;28;20331;-77
2022/07/24 18:51:32;;;;;;;;;;;;;;;;;;10396478;28;20024;-78
2022/07/24 18:56:33;;;;;;;;;;;;;;;;;;10400343;28;19917;-76
2022/07/24 19:01:33;;;;;;;;;;;;;;;;;;10382921;28;19924;-78
2022/07/24 19:06:33;;;;;;;;;;;;;;;;;;10383521;28;20003;-77
2022/07/24 19:11:33;;;;;;;;;;;;;;;;;;10390353;28;19921;-79
2022/07/24 19:16:34;;;;;;;;;;;;;;;;;;10389255;28;19914;-78
2022/07/24 19:21:34;;;;;;;;;;;;;;;;;;10398358;28;19925;-77
2022/07/24 19:26:34;;;;;;;;;;;;;;;;;;10382895;28;19913;-78
2022/07/24 19:31:34;;;;;;;;;;;;;;;;;;10379491;28;19999;-78
2022/07/24 19:36:35;;;;;;;;;;;;;;;;;;10366874;28;19992;-77
2022/07/24 19:41:35;;;;;;;;;;;;;;;;;;10364936;28;19925;-79
2022/07/24 19:46:37;;;;;;;;;;;;;;;;;;10385054;28;19917;-79
2022/07/24 19:51:37;;;;;;;;;;;;;;;;;;10384210;28;19922;-71
2022/07/24 19:56:37;;;;;;;;;;;;;;;;;;10375826;28;20333;-71
2022/07/24 20:01:38;;;;;;;;;;;;;;;;;;10374059;28;19937;-71
2022/07/24 20:06:38;;;;;;;;;;;;;;;;;;10385228;28;19923;-71
2022/07/24 20:11:38;;;;;;;;;;;;;;;;;;10375787;28;20455;-72
2022/07/24 20:16:38;;;;;;;;;;;;;;;;;;10384353;28;20444;-72
2022/07/24 20:21:39;;;;;;;;;;;;;;;;;;10373692;28;19921;-71
2022/07/24 20:26:39;;;;;;;;;;;;;;;;;;10398917;28;19941;-71
2022/07/24 20:31:39;;;;;;;;;;;;;;;;;;10400829;28;19992;-73
2022/07/24 20:36:40;;;;;;;;;;;;;;;;;;10394137;28;20402;-71
2022/07/24 20:41:40;;;;;;;;;;;;;;;;;;10392031;28;19971;-72
2022/07/24 20:46:40;;;;;;;;;;;;;;;;;;10382219;28;19964;-72
2022/07/24 20:51:41;;;;;;;;;;;;;;;;;;10389560;28;20004;-72
2022/07/24 20:56:41;;;;;;;;;;;;;;;;;;10394056;28;19921;-72
2022/07/24 21:01:41;;;;;;;;;;;;;;;;;;10385474;28;19940;-71
2022/07/24 21:06:41;;;;;;;;;;;;;;;;;;10378788;28;19917;-72
2022/07/24 21:11:41;;;;;;;;;;;;;;;;;;10382324;28;20233;-72
2022/07/24 21:16:42;;;;;;;;;;;;;;;;;;10376975;28;19924;-73
2022/07/24 21:21:42;;;;;;;;;;;;;;;;;;10385490;28;20388;-71
2022/07/24 21:26:42;;;;;;;;;;;;;;;;;;10388828;28;20422;-71
2022/07/24 21:31:43;;;;;;;;;;;;;;;;;;10359439;28;20152;-72
2022/07/24 21:36:44;;;;;;;;;;;;;;;;;;10382872;28;19999;-72
2022/07/24 21:41:44;;;;;;;;;;;;;;;;;;10377872;28;19935;-71
2022/07/24 21:46:46;;;;;;;;;;;;;;;;;;10388112;28;20383;-71
2022/07/24 21:51:46;;;;;;;;;;;;;;;;;;10384615;28;20648;-70
2022/07/24 21:56:46;;;;;;;;;;;;;;;;;;10375923;28;19917;-71
2022/07/24 22:01:47;;;;;;;;;;;;;;;;;;10378151;28;20404;-71
2022/07/24 22:06:47;;;;;;;;;;;;;;;;;;10373669;28;19917;-71
2022/07/24 22:11:48;;;;;;;;;;;;;;;;;;10381336;28;19921;-71
2022/07/24 22:16:48;;;;;;;;;;;;;;;;;;10375165;28;20316;-71
2022/07/24 22:21:48;;;;;;;;;;;;;;;;;;10380064;28;20018;-71
2022/07/24 22:26:49;;;;;;;;;;;;;;;;;;10369959;28;19920;-71
2022/07/24 22:31:49;;;;;;;;;;;;;;;;;;10384335;28;19914;-71
2022/07/24 22:36:49;;;;;;;;;;;;;;;;;;10377522;28;20253;-71
2022/07/24 22:41:49;;;;;;;;;;;;;;;;;;10387024;28;20345;-71
2022/07/24 22:46:50;;;;;;;;;;;;;;;;;;10390315;28;19916;-70
2022/07/24 22:51:50;;;;;;;;;;;;;;;;;;10379293;28;19925;-71
2022/07/24 22:56:50;;;;;;;;;;;;;;;;;;10380427;28;20031;-71
2022/07/24 23:01:50;;;;;;;;;;;;;;;;;;10376039;28;19933;-71
2022/07/24 23:06:51;;;;;;;;;;;;;;;;;;10386578;28;19939;-70
2022/07/24 23:11:51;;;;;;;;;;;;;;;;;;10391769;28;20396;-71
2022/07/24 23:16:51;;;;;;;;;;;;;;;;;;10379309;28;19987;-71
2022/07/24 23:21:51;;;;;;;;;;;;;;;;;;10372897;28;20703;-71
2022/07/24 23:26:51;;;;;;;;;;;;;;;;;;10374115;28;20760;-71
2022/07/24 23:31:52;;;;;;;;;;;;;;;;;;10387278;28;19919;-71
2022/07/24 23:36:52;;;;;;;;;;;;;;;;;;10392763;28;19957;-72
2022/07/24 23:41:52;;;;;;;;;;;;;;;;;;10383451;28;19983;-72
2022/07/24 23:46:52;;;;;;;;;;;;;;;;;;10376797;28;19920;-73
2022/07/24 23:51:53;;;;;;;;;;;;;;;;;;10372698;28;19913;-72
2022/07/24 23:56:53;;;;;;;;;;;;;;;;;;10374656;28;19917;-72
